createdAt,value
2019-03-25T00:02:26.669Z,33.97
2019-03-25T00:04:58.253Z,33.97
2019-03-25T00:07:29.848Z,36.80
2019-03-25T00:10:01.360Z,39.47
2019-03-25T00:12:32.940Z,46.30
2019-03-25T00:15:07.123Z,52.20
2019-03-25T00:17:38.658Z,60.63
2019-03-25T00:20:10.235Z,50.73
2019-03-25T00:22:42.833Z,44.53
2019-03-25T00:25:14.484Z,73.37
2019-03-25T00:27:46.011Z,66.57
2019-03-25T00:30:17.511Z,64.27
2019-03-25T00:32:49.027Z,56.60
2019-03-25T00:35:20.523Z,56.70
2019-03-25T00:37:52.099Z,47.97
2019-03-25T00:40:23.634Z,60.60
2019-03-25T00:42:55.128Z,58.87
2019-03-25T00:45:26.646Z,69.93
2019-03-25T00:47:58.161Z,67.40
2019-03-25T00:50:29.683Z,56.93
2019-03-25T00:53:01.339Z,168.27
2019-03-25T00:55:32.912Z,76.03
2019-03-25T00:58:04.425Z,56.23
2019-03-25T01:00:36.007Z,41.00
2019-03-25T01:03:07.540Z,44.77
2019-03-25T01:05:39.317Z,62.73
2019-03-25T01:08:10.862Z,46.57
2019-03-25T01:10:42.450Z,47.23
2019-03-25T01:13:13.964Z,42.93
2019-03-25T01:15:45.457Z,45.73
2019-03-25T01:18:17.392Z,53.50
2019-03-25T01:20:49.078Z,40.47
2019-03-25T01:23:20.656Z,58.63
2019-03-25T01:25:52.242Z,51.03
2019-03-25T01:28:23.974Z,59.23
2019-03-25T01:30:55.497Z,51.13
2019-03-25T01:33:27.059Z,52.40
2019-03-25T01:35:58.619Z,41.87
2019-03-25T01:38:30.190Z,44.73
2019-03-25T01:41:01.775Z,50.87
2019-03-25T01:43:33.284Z,35.67
2019-03-25T01:46:04.790Z,47.00
2019-03-25T01:48:36.346Z,39.40
2019-03-25T01:51:07.867Z,40.30
2019-03-25T01:53:39.398Z,35.00
2019-03-25T01:56:10.911Z,44.80
2019-03-25T01:58:42.488Z,49.37
2019-03-25T02:01:14.302Z,43.60
2019-03-25T02:03:46.767Z,44.50
2019-03-25T02:06:18.362Z,34.27
2019-03-25T02:08:50.994Z,38.20
2019-03-25T02:11:22.562Z,36.33
2019-03-25T02:13:54.110Z,36.37
2019-03-25T02:16:26.606Z,41.83
2019-03-25T02:18:58.114Z,45.63
2019-03-25T02:21:29.618Z,37.53
2019-03-25T02:24:01.203Z,32.43
2019-03-25T02:26:32.869Z,38.37
2019-03-25T02:29:04.373Z,38.27
2019-03-25T02:31:35.909Z,44.47
2019-03-25T02:34:07.435Z,49.67
2019-03-25T02:36:38.940Z,47.47
2019-03-25T02:39:10.431Z,37.37
2019-03-25T02:41:41.956Z,44.77
2019-03-25T02:44:13.551Z,49.67
2019-03-25T02:46:45.030Z,53.90
2019-03-25T02:49:16.555Z,56.73
2019-03-25T02:51:48.077Z,52.50
2019-03-25T02:54:19.591Z,50.13
2019-03-25T02:56:51.088Z,52.57
2019-03-25T02:59:22.601Z,49.47
2019-03-25T03:01:54.112Z,53.50
2019-03-25T03:04:25.739Z,43.63
2019-03-25T03:06:57.288Z,63.07
2019-03-25T03:09:28.908Z,59.97
2019-03-25T03:12:01.462Z,48.93
2019-03-25T03:14:33.035Z,52.10
2019-03-25T03:17:04.606Z,53.40
2019-03-25T03:19:36.116Z,49.77
2019-03-25T03:22:07.682Z,53.03
2019-03-25T03:24:40.174Z,52.73
2019-03-25T03:27:11.700Z,41.60
2019-03-25T03:29:43.204Z,43.50
2019-03-25T03:32:14.723Z,36.07
2019-03-25T03:34:46.307Z,48.73
2019-03-25T03:37:17.837Z,39.77
2019-03-25T03:39:49.359Z,41.23
2019-03-25T03:42:20.880Z,39.90
2019-03-25T03:44:52.403Z,36.60
2019-03-25T03:47:23.919Z,42.40
2019-03-25T03:49:55.506Z,47.87
2019-03-25T03:52:27.033Z,37.83
2019-03-25T03:54:58.548Z,41.50
2019-03-25T03:57:30.160Z,35.70
2019-03-25T04:00:02.084Z,38.13
2019-03-25T04:02:33.689Z,40.87
2019-03-25T04:05:05.272Z,38.23
2019-03-25T04:07:36.773Z,34.43
2019-03-25T04:10:08.313Z,39.20
2019-03-25T04:12:39.877Z,38.87
2019-03-25T04:15:16.299Z,35.57
2019-03-25T04:17:47.846Z,43.00
2019-03-25T04:20:19.404Z,36.50
2019-03-25T04:22:50.898Z,35.97
2019-03-25T04:25:22.423Z,33.63
2019-03-25T04:27:54.119Z,36.27
2019-03-25T04:30:25.692Z,35.50
2019-03-25T04:32:57.203Z,38.97
2019-03-25T04:35:28.826Z,37.10
2019-03-25T04:38:00.370Z,37.40
2019-03-25T04:40:31.918Z,39.77
2019-03-25T04:43:03.424Z,40.60
2019-03-25T04:45:34.948Z,39.60
2019-03-25T04:48:06.466Z,43.13
2019-03-25T04:50:38.131Z,34.13
2019-03-25T04:53:09.654Z,35.30
2019-03-25T04:55:41.173Z,35.13
2019-03-25T04:58:12.965Z,39.90
2019-03-25T05:00:44.544Z,37.37
2019-03-25T05:03:16.060Z,41.77
2019-03-25T05:05:47.558Z,39.00
2019-03-25T05:08:19.153Z,36.27
2019-03-25T05:10:50.670Z,38.60
2019-03-25T05:13:22.173Z,39.00
2019-03-25T05:15:53.694Z,33.20
2019-03-25T05:18:25.276Z,45.97
2019-03-25T05:20:56.787Z,50.60
2019-03-25T05:23:28.351Z,43.17
2019-03-25T05:25:59.878Z,49.30
2019-03-25T05:28:31.402Z,34.60
2019-03-25T05:31:02.884Z,43.30
2019-03-25T05:33:34.413Z,44.80
2019-03-25T05:36:05.996Z,49.03
2019-03-25T05:38:37.514Z,42.63
2019-03-25T05:41:09.015Z,46.43
2019-03-25T05:43:40.514Z,41.33
2019-03-25T05:46:12.007Z,33.00
2019-03-25T05:48:43.606Z,28.03
2019-03-25T05:51:15.111Z,22.33
2019-03-25T05:53:46.720Z,25.07
2019-03-25T05:56:18.237Z,27.20
2019-03-25T05:58:49.752Z,22.37
2019-03-25T06:01:21.316Z,25.20
2019-03-25T06:03:52.823Z,27.50
2019-03-25T06:06:24.340Z,23.80
2019-03-25T06:08:55.903Z,23.80
2019-03-25T06:11:28.363Z,26.40
2019-03-25T06:13:59.963Z,29.40
2019-03-25T06:16:31.559Z,27.77
2019-03-25T06:19:03.066Z,21.00
2019-03-25T06:21:34.653Z,25.63
2019-03-25T06:24:08.547Z,26.67
2019-03-25T06:26:39.475Z,30.70
2019-03-25T06:29:10.992Z,30.87
2019-03-25T06:31:42.601Z,23.53
2019-03-25T06:34:14.171Z,33.00
2019-03-25T06:36:45.672Z,28.90
2019-03-25T06:39:17.185Z,26.33
2019-03-25T06:41:48.778Z,34.20
2019-03-25T06:44:20.397Z,23.37
2019-03-25T06:46:52.000Z,35.30
2019-03-25T06:49:23.550Z,22.60
2019-03-25T06:51:55.121Z,30.07
2019-03-25T06:54:26.687Z,31.30
2019-03-25T06:56:58.178Z,30.07
2019-03-25T06:59:29.698Z,37.03
2019-03-25T07:02:01.330Z,31.73
2019-03-25T07:04:32.875Z,26.80
2019-03-25T07:07:04.441Z,25.90
2019-03-25T07:09:36.054Z,24.47
2019-03-25T07:12:07.989Z,18.47
2019-03-25T07:14:39.577Z,19.27
2019-03-25T07:17:12.189Z,17.97
2019-03-25T07:19:43.678Z,22.23
2019-03-25T07:22:15.177Z,18.87
2019-03-25T07:24:46.752Z,22.47
2019-03-25T07:27:18.261Z,15.47
2019-03-25T07:29:49.779Z,19.17
2019-03-25T07:32:21.369Z,19.93
2019-03-25T07:34:52.971Z,21.43
2019-03-25T07:37:24.751Z,22.23
2019-03-25T07:39:56.247Z,20.60
2019-03-25T07:42:27.758Z,23.53
2019-03-25T07:44:59.262Z,17.80
2019-03-25T07:47:30.771Z,22.83
2019-03-25T07:50:02.268Z,16.37
2019-03-25T07:52:33.848Z,18.07
2019-03-25T07:55:06.620Z,19.10
2019-03-25T07:57:47.740Z,18.63
2019-03-25T08:00:14.444Z,15.60
2019-03-25T08:02:46.076Z,26.47
2019-03-25T08:05:17.682Z,27.60
2019-03-25T08:07:49.186Z,17.37
2019-03-25T08:10:35.469Z,17.77
2019-03-25T08:13:07.035Z,25.73
2019-03-25T08:15:38.572Z,22.17
2019-03-25T08:18:10.115Z,14.83
2019-03-25T08:20:41.615Z,13.87
2019-03-25T08:23:13.114Z,18.20
2019-03-25T08:25:44.622Z,17.17
2019-03-25T08:28:16.140Z,23.53
2019-03-25T08:30:47.670Z,15.83
2019-03-25T08:33:19.162Z,24.70
2019-03-25T08:35:50.684Z,19.47
2019-03-25T08:38:22.212Z,20.37
2019-03-25T08:40:53.794Z,15.73
2019-03-25T08:43:25.297Z,17.07
2019-03-25T08:45:56.886Z,22.00
2019-03-25T08:48:28.376Z,16.00
2019-03-25T08:50:59.888Z,19.23
2019-03-25T08:53:31.414Z,18.77
2019-03-25T08:56:02.975Z,13.50
2019-03-25T08:58:34.503Z,13.83
2019-03-25T09:01:07.159Z,20.40
2019-03-25T09:03:38.682Z,19.40
2019-03-25T09:06:22.785Z,14.13
2019-03-25T09:08:54.301Z,13.33
2019-03-25T09:11:25.809Z,16.53
2019-03-25T09:13:57.391Z,19.25
2019-03-25T09:16:41.419Z,15.37
2019-03-25T09:19:12.934Z,18.27
2019-03-25T09:21:44.438Z,20.65
2019-03-25T09:24:15.948Z,15.85
2019-03-25T09:26:47.533Z,10.68
2019-03-25T09:29:19.120Z,12.03
2019-03-25T09:31:50.624Z,14.65
2019-03-25T09:34:22.122Z,14.03
2019-03-25T09:36:53.723Z,14.13
2019-03-25T09:39:25.241Z,17.87
2019-03-25T09:41:56.792Z,17.87
2019-03-25T09:44:28.288Z,12.68
2019-03-25T09:46:59.870Z,15.98
2019-03-25T09:49:31.363Z,17.35
2019-03-25T09:52:03.030Z,14.70
2019-03-25T09:54:34.534Z,13.15
2019-03-25T09:57:06.118Z,16.35
2019-03-25T09:59:37.702Z,12.10
2019-03-25T10:02:09.229Z,20.92
2019-03-25T10:04:40.726Z,18.82
2019-03-25T10:07:17.111Z,14.05
2019-03-25T10:09:48.705Z,16.90
2019-03-25T10:12:20.224Z,12.03
2019-03-25T10:14:51.743Z,16.10
2019-03-25T10:17:23.243Z,11.68
2019-03-25T10:19:54.841Z,12.15
2019-03-25T10:22:27.423Z,9.30
2019-03-25T10:24:58.988Z,8.80
2019-03-25T10:27:30.500Z,13.30
2019-03-25T10:30:02.027Z,10.73
2019-03-25T10:32:33.626Z,9.37
2019-03-25T10:35:06.434Z,12.17
2019-03-25T10:37:38.091Z,12.23
2019-03-25T10:40:09.660Z,11.20
2019-03-25T10:42:41.226Z,13.45
2019-03-25T10:45:12.885Z,13.30
2019-03-25T10:47:44.391Z,13.70
2019-03-25T10:50:15.910Z,9.55
2019-03-25T10:52:47.412Z,7.65
2019-03-25T10:55:18.972Z,12.70
2019-03-25T10:57:50.547Z,9.60
2019-03-25T11:00:22.206Z,13.13
2019-03-25T11:02:53.792Z,10.35
2019-03-25T11:05:25.334Z,11.33
2019-03-25T11:07:57.887Z,11.35
2019-03-25T11:10:29.383Z,12.30
2019-03-25T11:13:00.924Z,14.98
2019-03-25T11:15:32.495Z,10.00
2019-03-25T11:18:05.750Z,11.77
2019-03-25T11:20:37.225Z,9.33
2019-03-25T11:23:08.815Z,4.53
2019-03-25T11:25:40.345Z,15.47
2019-03-25T11:28:12.396Z,8.53
2019-03-25T11:30:55.636Z,6.37
2019-03-25T11:33:27.149Z,8.67
2019-03-25T11:35:59.712Z,4.67
2019-03-25T11:38:32.177Z,3.23
2019-03-25T11:41:03.693Z,3.23
2019-03-25T11:43:35.194Z,2.83
2019-03-25T11:46:06.683Z,5.43
2019-03-25T11:48:38.189Z,4.23
2019-03-25T11:51:10.032Z,3.90
2019-03-25T11:53:41.525Z,3.33
2019-03-25T11:56:13.089Z,3.33
2019-03-25T11:58:44.581Z,2.47
2019-03-25T12:01:16.062Z,3.70
2019-03-25T12:03:47.578Z,3.63
2019-03-25T12:06:19.283Z,2.73
2019-03-25T12:08:50.776Z,2.10
2019-03-25T12:11:23.727Z,1.23
2019-03-25T12:13:55.269Z,1.20
2019-03-25T12:16:26.760Z,2.67
2019-03-25T12:18:58.252Z,2.53
2019-03-25T12:21:29.772Z,2.87
2019-03-25T12:24:01.273Z,1.40
2019-03-25T12:26:33.855Z,2.00
2019-03-25T12:29:05.337Z,1.67
2019-03-25T12:31:36.819Z,1.50
2019-03-25T12:34:08.423Z,2.47
2019-03-25T12:36:39.951Z,2.87
2019-03-25T12:39:11.426Z,1.40
2019-03-25T12:41:42.927Z,2.03
2019-03-25T12:44:14.427Z,2.60
2019-03-25T12:46:46.000Z,1.40
2019-03-25T12:49:17.494Z,2.23
2019-03-25T12:51:48.998Z,2.07
2019-03-25T12:54:20.495Z,2.93
2019-03-25T12:56:52.071Z,2.23
2019-03-25T12:59:23.573Z,1.40
2019-03-25T13:01:55.084Z,1.33
2019-03-25T13:04:26.580Z,1.17
2019-03-25T13:06:58.093Z,1.60
2019-03-25T13:09:29.595Z,1.60
2019-03-25T13:12:01.186Z,1.20
2019-03-25T13:14:35.099Z,1.70
2019-03-25T13:17:05.982Z,1.60
2019-03-25T13:19:37.493Z,1.53
2019-03-25T13:22:09.057Z,1.40
2019-03-25T13:24:40.567Z,2.50
2019-03-25T13:27:12.072Z,3.30
2019-03-25T13:29:52.079Z,2.40
2019-03-25T13:32:16.779Z,2.37
2019-03-25T13:34:48.353Z,3.30
2019-03-25T13:37:19.924Z,3.43
2019-03-25T13:39:51.418Z,2.00
2019-03-25T13:42:22.925Z,2.40
2019-03-25T13:44:57.595Z,2.40
2019-03-25T13:47:28.654Z,2.20
2019-03-25T13:50:00.407Z,3.47
2019-03-25T13:52:33.197Z,3.13
2019-03-25T13:55:06.417Z,4.80
2019-03-25T13:57:37.922Z,11.73
2019-03-25T14:00:09.504Z,2.70
2019-03-25T14:02:41.014Z,3.90
2019-03-25T14:05:12.991Z,3.37
2019-03-25T14:07:45.677Z,4.50
2019-03-25T14:10:17.270Z,4.13
2019-03-25T14:12:49.023Z,3.10
2019-03-25T14:15:20.505Z,5.07
2019-03-25T14:17:52.083Z,6.03
2019-03-25T14:20:23.661Z,4.70
2019-03-25T14:22:55.239Z,4.33
2019-03-25T14:25:26.809Z,6.53
2019-03-25T14:27:59.250Z,5.97
2019-03-25T14:30:30.983Z,7.50
2019-03-25T14:33:02.561Z,10.13
2019-03-25T14:35:34.055Z,7.27
2019-03-25T14:38:05.552Z,6.87
2019-03-25T14:40:37.054Z,6.50
2019-03-25T14:43:08.606Z,8.60
2019-03-25T14:45:40.179Z,9.07
2019-03-25T14:48:11.757Z,11.17
2019-03-25T14:50:43.315Z,10.87
2019-03-25T14:53:14.849Z,8.27
2019-03-25T14:55:46.487Z,10.13
2019-03-25T14:58:18.067Z,8.77
2019-03-25T15:00:49.568Z,10.07
2019-03-25T15:03:21.051Z,10.77
2019-03-25T15:05:52.561Z,9.87
2019-03-25T15:08:24.144Z,9.43
2019-03-25T15:10:57.367Z,10.33
2019-03-25T15:13:28.944Z,8.93
2019-03-25T15:16:00.518Z,9.17
2019-03-25T15:18:32.983Z,9.30
2019-03-25T15:21:04.609Z,10.90
2019-03-25T15:23:36.265Z,10.00
2019-03-25T15:26:08.034Z,10.40
2019-03-25T15:28:39.769Z,11.20
2019-03-25T15:31:11.343Z,10.20
2019-03-25T15:33:42.882Z,11.63
2019-03-25T15:36:14.436Z,9.17
2019-03-25T15:38:46.051Z,9.17
2019-03-25T15:41:17.676Z,8.73
2019-03-25T15:43:49.177Z,9.80
2019-03-25T15:46:20.761Z,11.67
2019-03-25T15:48:52.275Z,10.60
2019-03-25T15:51:23.758Z,13.27
2019-03-25T15:53:55.441Z,11.00
2019-03-25T15:56:27.397Z,13.57
2019-03-25T15:58:58.887Z,13.83
2019-03-25T16:01:35.059Z,8.73
2019-03-25T16:04:06.599Z,9.10
2019-03-25T16:06:38.097Z,7.97
2019-03-25T16:09:09.940Z,9.17
2019-03-25T16:11:43.199Z,9.23
2019-03-25T16:14:14.716Z,11.87
2019-03-25T16:16:46.222Z,8.23
2019-03-25T16:19:17.741Z,8.80
2019-03-25T16:21:49.249Z,8.80
2019-03-25T16:24:20.837Z,8.63
2019-03-25T16:26:52.340Z,12.50
2019-03-25T16:29:23.818Z,8.13
2019-03-25T16:31:55.322Z,13.27
2019-03-25T16:34:26.902Z,9.63
2019-03-25T16:36:58.512Z,9.57
2019-03-25T16:39:30.029Z,7.53
2019-03-25T16:42:01.586Z,7.60
2019-03-25T16:44:33.173Z,10.13
2019-03-25T16:47:04.664Z,10.23
2019-03-25T16:49:36.190Z,7.00
2019-03-25T16:52:07.742Z,5.53
2019-03-25T16:54:39.386Z,7.37
2019-03-25T16:57:10.872Z,6.67
2019-03-25T16:59:42.393Z,5.23
2019-03-25T17:02:13.879Z,6.30
2019-03-25T17:04:45.380Z,6.37
2019-03-25T17:07:16.965Z,7.67
2019-03-25T17:09:48.518Z,6.97
2019-03-25T17:12:20.009Z,6.17
2019-03-25T17:14:51.519Z,3.60
2019-03-25T17:17:23.030Z,7.03
2019-03-25T17:19:54.590Z,6.00
2019-03-25T17:22:26.132Z,6.23
2019-03-25T17:24:57.644Z,6.57
2019-03-25T17:27:29.159Z,7.57
2019-03-25T17:30:00.660Z,7.37
2019-03-25T17:32:32.569Z,5.13
2019-03-25T17:35:06.015Z,6.03
2019-03-25T17:37:37.606Z,3.60
2019-03-25T17:40:09.143Z,4.73
2019-03-25T17:42:40.756Z,4.97
2019-03-25T17:45:12.248Z,3.93
2019-03-25T17:47:43.759Z,5.27
2019-03-25T17:50:15.299Z,3.73
2019-03-25T17:52:46.921Z,3.97
2019-03-25T17:55:18.494Z,3.13
2019-03-25T17:57:50.193Z,3.30
2019-03-25T18:00:49.360Z,3.63
2019-03-25T18:03:21.940Z,5.30
2019-03-25T18:05:54.495Z,4.93
2019-03-25T18:08:26.498Z,5.77
2019-03-25T18:10:58.004Z,5.33
2019-03-25T18:13:29.495Z,4.93
2019-03-25T18:16:02.679Z,3.87
2019-03-25T18:18:34.325Z,4.40
2019-03-25T18:21:05.824Z,4.13
2019-03-25T18:23:37.366Z,4.27
2019-03-25T18:26:08.859Z,5.27
2019-03-25T18:28:40.365Z,6.33
2019-03-25T18:31:11.888Z,5.70
2019-03-25T18:33:43.439Z,5.50
2019-03-25T18:36:15.028Z,4.73
2019-03-25T18:38:46.526Z,5.23
2019-03-25T18:41:19.143Z,3.70
2019-03-25T18:43:50.707Z,4.97
2019-03-25T18:46:23.564Z,5.53
2019-03-25T18:48:55.345Z,3.77
2019-03-25T18:51:28.556Z,4.50
2019-03-25T18:54:00.224Z,4.93
2019-03-25T18:56:31.776Z,6.30
2019-03-25T18:59:03.369Z,5.67
2019-03-25T19:01:34.929Z,6.47
2019-03-25T19:04:06.775Z,6.50
2019-03-25T19:06:38.329Z,4.87
2019-03-25T19:09:09.939Z,4.53
2019-03-25T19:11:41.551Z,7.53
2019-03-25T19:14:14.602Z,7.30
2019-03-25T19:16:46.589Z,4.50
2019-03-25T19:19:18.083Z,6.03
2019-03-25T19:21:49.596Z,5.27
2019-03-25T19:24:21.145Z,5.60
2019-03-25T19:26:52.718Z,4.93
2019-03-25T19:29:24.215Z,14.27
2019-03-25T19:32:06.099Z,9.67
2019-03-25T19:34:28.935Z,9.70
2019-03-25T19:37:00.571Z,10.30
2019-03-25T19:39:32.080Z,7.83
2019-03-25T19:42:03.658Z,9.17
2019-03-25T19:44:35.218Z,11.70
2019-03-25T19:47:06.762Z,7.23
2019-03-25T19:49:38.352Z,10.53
2019-03-25T19:52:09.847Z,39.27
2019-03-25T19:54:41.361Z,31.07
2019-03-25T19:57:12.917Z,9.73
2019-03-25T19:59:44.514Z,6.17
2019-03-25T20:02:19.247Z,8.20
2019-03-25T20:04:49.481Z,8.37
2019-03-25T20:07:20.964Z,10.30
2019-03-25T20:09:52.629Z,8.87
2019-03-25T20:12:24.168Z,7.60
2019-03-25T20:14:55.746Z,9.17
2019-03-25T20:17:27.244Z,12.13
2019-03-25T20:19:58.845Z,11.60
2019-03-25T20:22:30.361Z,9.17
2019-03-25T20:25:01.919Z,9.33
2019-03-25T20:27:33.520Z,8.23
2019-03-25T20:30:12.127Z,9.63
2019-03-25T20:32:43.681Z,19.03
2019-03-25T20:35:15.292Z,9.73
2019-03-25T20:37:50.335Z,9.60
2019-03-25T20:40:21.967Z,7.70
2019-03-25T20:42:53.563Z,11.07
2019-03-25T20:45:25.064Z,8.17
2019-03-25T20:47:56.623Z,10.63
2019-03-25T20:50:28.390Z,10.40
2019-03-25T20:53:00.093Z,12.13
2019-03-25T20:55:31.684Z,11.13
2019-03-25T20:58:05.292Z,10.67
2019-03-25T21:00:51.406Z,11.47
2019-03-25T21:03:23.056Z,12.53
2019-03-25T21:05:54.672Z,10.83
2019-03-25T21:08:26.284Z,11.43
2019-03-25T21:10:57.970Z,10.07
2019-03-25T21:13:29.582Z,11.83
2019-03-25T21:16:01.359Z,8.43
2019-03-25T21:18:33.515Z,11.40
2019-03-25T21:21:05.012Z,8.87
2019-03-25T21:23:36.538Z,12.43
2019-03-25T21:26:10.928Z,15.00
2019-03-25T21:28:41.318Z,12.33
2019-03-25T21:31:14.505Z,13.70
2019-03-25T21:33:46.206Z,20.33
2019-03-25T21:36:17.797Z,12.93
2019-03-25T21:38:54.537Z,12.40
2019-03-25T21:41:26.189Z,13.70
2019-03-25T21:43:57.802Z,11.37
2019-03-25T21:46:29.453Z,12.60
2019-03-25T21:49:02.539Z,14.83
2019-03-25T21:51:34.066Z,14.67
2019-03-25T21:54:05.736Z,14.33
2019-03-25T21:56:37.318Z,13.33
2019-03-25T21:59:08.848Z,16.20
2019-03-25T22:01:40.574Z,16.50
2019-03-25T22:04:12.075Z,15.80
2019-03-25T22:06:43.586Z,16.10
2019-03-25T22:09:15.127Z,16.73
2019-03-25T22:11:46.807Z,16.13
2019-03-25T22:14:18.352Z,17.00
2019-03-25T22:16:49.991Z,13.47
2019-03-25T22:19:22.408Z,13.43
2019-03-25T22:21:54.060Z,17.83
2019-03-25T22:24:25.588Z,16.80
2019-03-25T22:26:57.668Z,15.90
2019-03-25T22:29:29.248Z,14.43
2019-03-25T22:32:00.827Z,16.97
2019-03-25T22:34:32.340Z,16.30
2019-03-25T22:37:03.981Z,18.07
2019-03-25T22:39:35.492Z,16.43
2019-03-25T22:42:07.017Z,16.93
2019-03-25T22:44:38.510Z,22.57
2019-03-25T22:47:10.026Z,14.27
2019-03-25T22:49:41.533Z,17.97
2019-03-25T22:52:13.091Z,16.20
2019-03-25T22:54:44.682Z,17.37
2019-03-25T22:57:16.278Z,15.37
2019-03-25T22:59:47.824Z,17.93
2019-03-25T23:02:19.325Z,14.90
2019-03-25T23:04:50.906Z,16.10
2019-03-25T23:07:22.416Z,13.40
2019-03-25T23:09:54.020Z,15.03
2019-03-25T23:12:25.605Z,15.93
2019-03-25T23:14:57.119Z,13.60
2019-03-25T23:17:28.756Z,17.33
2019-03-25T23:20:00.536Z,18.90
2019-03-25T23:22:32.232Z,17.17
2019-03-25T23:25:04.422Z,15.20
2019-03-25T23:27:36.001Z,10.17
2019-03-25T23:30:07.862Z,14.77
2019-03-25T23:32:39.517Z,14.13
2019-03-25T23:35:11.134Z,15.27
2019-03-25T23:37:42.696Z,16.90
2019-03-25T23:40:14.317Z,16.53
2019-03-25T23:42:45.829Z,12.33
2019-03-25T23:45:17.408Z,17.03
2019-03-25T23:47:49.055Z,13.80
2019-03-25T23:50:20.687Z,14.03
2019-03-25T23:52:52.205Z,13.37
2019-03-25T23:55:23.801Z,15.93
2019-03-25T23:57:55.288Z,17.27
